Aérodrome :
LOGIN :

S'inscrire | Disclaimer

   EN    FR    IT 

 










Légende :    VFR   VFR Marginal   IFR   IFR Intensif   IFR Très Intensif
Visi : 
Plafond : 
>= 8 km
>= 3000ft
5 à 8 km
1000 à 3000 ft
1500m à 5 km
500 à 1000 ft
800 à 1500m
200 à 500 ft
< 800m
< 200 ft
Symboles :   Orages  Brouillard  Fortes neiges  Fortes précipitations  Vent > 20 kt
SIGMETs :   Divers  Orages  Givrage  Turbulence  Onde Orograph.  Cendres Volcan.







- Altitude de l'aérodrome : 352 ft
- Code IATA : ARW


LRAR - Arad International

DERNIER METAR :
  • 201400Z 20006KT 9999 SCT045CB 20/14 Q1007

METARs EXPIRÉS :
  • 201330Z 22007KT 9999 FEW050CB 21/13 Q1006
  • 201300Z 18007KT 150V220 9999 FEW045CB 22/13 Q1006
  • 201230Z 18008KT 9999 SCT044 22/12 Q1007
  • 201200Z 20006KT 170V230 9999 SCT044 22/13 Q1007
  • 201130Z 20006KT 160V230 9999 SCT042 21/12 Q1007

TAF TAF LRAR
Valide du 20 à 12h jusqu'au 20 à 21h UTC


201100Z 2012/2021 20008KT 9999 SCT035
BECMG 2012/2014 SCT025CB BKN030
TEMPO 2014/2018 VRB20KT 5000 -TSRA
Pas de NOTAMs connus pour ce terrain.



MET'MAP, la Météo Aéronautique d'un coup d'oeil ! - Copyright ORBIFLY Décembre 2007 - Disclaimer

ORBIFLY MET'MAP TEAM :

Programmation & Développement : Alexandra Zaïnal
Conception & Développement : Baudouin d'Aumeries
Co-Programmation & Développement : Marc-Olivier Méhu
Soutien technique & logistique : Manuel Goepfert

Contact : metmap@orbifly.com




SOURCES & CREDITS :

   NOAA